createdAt,value
2023-05-22T00:00:28.476Z,13.38
2023-05-22T00:02:58.063Z,13.98
2023-05-22T00:05:26.207Z,14.05
2023-05-22T00:07:54.132Z,14.00
2023-05-22T00:10:25.430Z,13.45
2023-05-22T00:12:53.405Z,14.20
2023-05-22T00:15:24.539Z,13.27
2023-05-22T00:17:54.007Z,13.27
2023-05-22T00:20:23.837Z,12.70
2023-05-22T00:22:52.359Z,14.25
2023-05-22T00:25:21.256Z,14.10
2023-05-22T00:27:49.716Z,13.98
2023-05-22T00:30:18.237Z,14.60
2023-05-22T00:32:50.209Z,14.93
2023-05-22T00:35:18.784Z,15.07
2023-05-22T00:37:48.157Z,14.48
2023-05-22T00:40:16.899Z,14.45
2023-05-22T00:42:45.582Z,14.63
2023-05-22T00:45:16.704Z,14.50
2023-05-22T00:47:45.329Z,14.35
2023-05-22T00:50:14.116Z,14.40
2023-05-22T00:52:44.289Z,14.55
2023-05-22T00:55:15.593Z,14.38
2023-05-22T00:57:47.784Z,15.82
2023-05-22T01:00:16.924Z,16.20
2023-05-22T01:02:45.402Z,16.55
2023-05-22T01:05:18.163Z,16.08
2023-05-22T01:07:46.717Z,15.68
2023-05-22T01:10:16.319Z,14.98
2023-05-22T01:12:51.968Z,14.10
2023-05-22T01:15:36.798Z,15.00
2023-05-22T01:18:19.737Z,15.07
2023-05-22T01:20:55.116Z,14.00
2023-05-22T01:23:54.082Z,14.48
2023-05-22T01:26:50.070Z,14.40
2023-05-22T01:29:44.582Z,14.13
2023-05-22T01:32:17.429Z,15.25
2023-05-22T01:34:51.673Z,15.02
2023-05-22T01:37:21.899Z,15.25
2023-05-22T01:39:55.854Z,15.43
2023-05-22T01:42:26.216Z,15.48
2023-05-22T01:44:54.649Z,15.73
2023-05-22T01:47:24.027Z,16.38
2023-05-22T01:49:52.701Z,16.40
2023-05-22T01:52:28.720Z,16.70
2023-05-22T01:55:05.261Z,15.88
2023-05-22T01:57:43.832Z,15.25
2023-05-22T02:00:15.925Z,15.45
2023-05-22T02:02:49.564Z,16.60
2023-05-22T02:05:19.609Z,15.82
2023-05-22T02:07:49.209Z,16.40
2023-05-22T02:10:19.318Z,16.30
2023-05-22T02:12:49.407Z,15.90
2023-05-22T02:15:18.055Z,16.30
2023-05-22T02:17:49.586Z,17.13
2023-05-22T02:20:17.666Z,17.08
2023-05-22T02:22:47.555Z,17.63
2023-05-22T02:25:20.796Z,17.08
2023-05-22T02:27:49.624Z,17.23
2023-05-22T02:30:17.807Z,16.38
2023-05-22T02:32:47.752Z,17.17
2023-05-22T02:35:20.567Z,17.17
2023-05-22T02:37:51.772Z,18.05
2023-05-22T02:40:19.917Z,17.35
2023-05-22T02:42:51.858Z,16.25
2023-05-22T02:45:19.797Z,16.65
2023-05-22T02:47:50.564Z,17.13
2023-05-22T02:50:19.224Z,16.63
2023-05-22T02:52:47.796Z,16.40
2023-05-22T02:55:15.780Z,17.88
2023-05-22T02:57:44.396Z,17.23
2023-05-22T03:00:13.217Z,15.80
2023-05-22T03:02:41.827Z,17.02
2023-05-22T03:05:11.605Z,17.48
2023-05-22T03:07:40.260Z,17.60
2023-05-22T03:10:09.018Z,17.60
2023-05-22T03:12:37.047Z,17.40
2023-05-22T03:15:08.548Z,17.30
2023-05-22T03:17:36.528Z,16.70
2023-05-22T03:20:05.422Z,17.08
2023-05-22T03:22:34.838Z,16.73
2023-05-22T03:25:03.077Z,18.63
2023-05-22T03:27:31.000Z,18.55
2023-05-22T03:29:59.060Z,18.55
2023-05-22T03:32:28.204Z,18.67
2023-05-22T03:34:56.370Z,20.13
2023-05-22T03:37:24.560Z,20.08
2023-05-22T03:39:54.376Z,20.73
2023-05-22T03:42:26.175Z,19.55
2023-05-22T03:44:54.323Z,20.75
2023-05-22T03:47:22.311Z,21.02
2023-05-22T03:49:50.404Z,19.80
2023-05-22T03:52:18.463Z,20.70
2023-05-22T03:54:46.318Z,21.98
2023-05-22T03:57:16.386Z,21.08
2023-05-22T03:59:44.355Z,21.20
2023-05-22T04:02:13.284Z,20.13
2023-05-22T04:04:41.324Z,21.90
2023-05-22T04:07:09.562Z,20.38
2023-05-22T04:09:37.549Z,20.98
2023-05-22T04:12:06.756Z,21.52
2023-05-22T04:14:36.122Z,21.35
2023-05-22T04:17:07.935Z,20.48
2023-05-22T04:19:36.434Z,22.65
2023-05-22T04:22:04.580Z,22.17
2023-05-22T04:24:33.011Z,20.83
2023-05-22T04:27:02.280Z,20.23
2023-05-22T04:29:30.348Z,20.38
2023-05-22T04:32:00.222Z,20.77
2023-05-22T04:34:28.663Z,20.30
2023-05-22T04:37:00.451Z,19.63
2023-05-22T04:39:28.789Z,18.73
2023-05-22T04:41:58.238Z,19.27
2023-05-22T04:44:26.355Z,19.27
2023-05-22T04:46:57.345Z,19.13
2023-05-22T04:49:27.020Z,18.95
2023-05-22T04:51:55.673Z,18.88
2023-05-22T04:54:23.738Z,19.17
2023-05-22T04:56:56.039Z,18.88
2023-05-22T04:59:26.753Z,18.38
2023-05-22T05:01:54.945Z,18.73
2023-05-22T05:04:22.877Z,19.80
2023-05-22T05:06:57.876Z,18.75
2023-05-22T05:09:27.144Z,19.60
2023-05-22T05:11:55.859Z,18.42
2023-05-22T05:14:24.168Z,18.15
2023-05-22T05:16:52.880Z,19.45
2023-05-22T05:19:21.846Z,17.95
2023-05-22T05:21:54.420Z,18.05
2023-05-22T05:24:22.419Z,18.50
2023-05-22T05:26:51.791Z,18.45
2023-05-22T05:29:19.797Z,17.30
2023-05-22T05:31:47.758Z,19.23
2023-05-22T05:34:16.079Z,19.13
2023-05-22T05:36:44.232Z,17.10
2023-05-22T05:39:14.149Z,17.90
2023-05-22T05:41:42.419Z,18.40
2023-05-22T05:44:10.453Z,17.67
2023-05-22T05:46:38.950Z,18.95
2023-05-22T05:49:10.241Z,20.70
2023-05-22T05:51:38.823Z,19.35
2023-05-22T05:54:10.062Z,19.00
2023-05-22T05:56:42.386Z,18.00
2023-05-22T05:59:14.272Z,18.63
2023-05-22T06:01:46.046Z,19.10
2023-05-22T06:04:18.658Z,18.20
2023-05-22T06:06:49.055Z,17.58
2023-05-22T06:09:18.158Z,17.42
2023-05-22T06:11:48.969Z,16.63
2023-05-22T06:14:17.199Z,15.90
2023-05-22T06:16:45.973Z,16.80
2023-05-22T06:19:15.806Z,16.30
2023-05-22T06:21:44.578Z,16.45
2023-05-22T06:24:12.755Z,16.52
2023-05-22T06:26:40.965Z,17.30
2023-05-22T06:29:10.291Z,17.65
2023-05-22T06:31:39.264Z,17.92
2023-05-22T06:34:07.676Z,17.45
2023-05-22T06:36:37.565Z,17.95
2023-05-22T06:39:05.834Z,18.48
2023-05-22T06:41:37.253Z,16.83
2023-05-22T06:44:06.487Z,16.83
2023-05-22T06:46:36.121Z,17.45
2023-05-22T06:49:04.301Z,17.73
2023-05-22T06:51:33.136Z,17.38
2023-05-22T06:54:01.631Z,17.42
2023-05-22T06:56:32.037Z,16.88
2023-05-22T06:59:01.075Z,17.38
2023-05-22T07:01:30.450Z,18.15
2023-05-22T07:04:02.055Z,18.17
2023-05-22T07:06:32.401Z,17.98
2023-05-22T07:09:00.945Z,19.40
2023-05-22T07:11:28.997Z,18.90
2023-05-22T07:13:57.262Z,19.17
2023-05-22T07:16:26.370Z,18.05
2023-05-22T07:18:54.727Z,19.42
2023-05-22T07:21:25.277Z,19.10
2023-05-22T07:23:53.567Z,18.33
2023-05-22T07:26:23.205Z,17.10
2023-05-22T07:28:51.793Z,18.48
2023-05-22T07:31:20.428Z,17.20
2023-05-22T07:33:48.403Z,17.48
2023-05-22T07:36:19.306Z,17.05
2023-05-22T07:38:48.791Z,18.20
2023-05-22T07:41:17.589Z,17.60
2023-05-22T07:43:45.816Z,17.58
2023-05-22T07:46:14.299Z,15.80
2023-05-22T07:48:42.730Z,17.27
2023-05-22T07:51:11.156Z,16.98
2023-05-22T07:53:39.322Z,18.20
2023-05-22T07:56:08.870Z,16.27
2023-05-22T07:58:37.654Z,16.65
2023-05-22T08:01:08.684Z,15.57
2023-05-22T08:03:37.754Z,16.27
2023-05-22T08:06:06.287Z,15.73
2023-05-22T08:08:36.700Z,15.43
2023-05-22T08:11:05.411Z,14.82
2023-05-22T08:13:35.211Z,14.52
2023-05-22T08:16:03.785Z,16.35
2023-05-22T08:18:35.540Z,16.05
2023-05-22T08:21:05.286Z,15.10
2023-05-22T08:23:35.844Z,15.77
2023-05-22T08:26:04.193Z,15.20
2023-05-22T08:28:35.984Z,14.60
2023-05-22T08:31:05.977Z,15.07
2023-05-22T08:33:34.525Z,15.27
2023-05-22T08:36:02.851Z,16.83
2023-05-22T08:38:30.873Z,15.63
2023-05-22T08:40:59.649Z,15.60
2023-05-22T08:43:28.836Z,15.15
2023-05-22T08:46:02.219Z,13.90
2023-05-22T08:48:33.864Z,14.80
2023-05-22T08:51:05.248Z,15.82
2023-05-22T08:53:40.509Z,16.50
2023-05-22T08:56:09.642Z,15.73
2023-05-22T08:58:38.968Z,16.20
2023-05-22T09:01:07.440Z,15.35
2023-05-22T09:03:41.522Z,14.50
2023-05-22T09:06:11.160Z,13.88
2023-05-22T09:08:42.329Z,13.93
2023-05-22T09:11:10.955Z,12.98
2023-05-22T09:13:44.936Z,14.43
2023-05-22T09:16:14.449Z,15.10
2023-05-22T09:18:47.854Z,13.73
2023-05-22T09:21:28.810Z,14.57
2023-05-22T09:24:02.089Z,14.15
2023-05-22T09:26:32.909Z,16.02
2023-05-22T09:29:01.770Z,14.00
2023-05-22T09:31:30.765Z,13.75
2023-05-22T09:34:01.431Z,14.02
2023-05-22T09:36:34.154Z,14.93
2023-05-22T09:39:07.181Z,17.48
2023-05-22T09:41:38.099Z,14.32
2023-05-22T09:44:16.909Z,13.68
2023-05-22T09:46:48.206Z,13.45
2023-05-22T09:49:18.019Z,13.32
2023-05-22T09:51:48.912Z,14.02
2023-05-22T09:54:18.072Z,13.90
2023-05-22T09:56:48.644Z,14.73
2023-05-22T09:59:22.134Z,13.63
2023-05-22T10:01:51.985Z,13.40
2023-05-22T10:04:24.881Z,13.30
2023-05-22T10:06:55.357Z,13.43
2023-05-22T10:09:26.472Z,13.30
2023-05-22T10:11:57.628Z,13.18
2023-05-22T10:14:27.822Z,13.60
2023-05-22T10:16:57.883Z,12.30
2023-05-22T10:19:29.730Z,13.43
2023-05-22T10:21:59.920Z,13.43
2023-05-22T10:24:28.927Z,13.90
2023-05-22T10:26:57.031Z,12.75
2023-05-22T10:29:30.567Z,13.40
2023-05-22T10:32:05.967Z,13.50
2023-05-22T10:34:41.498Z,15.07
2023-05-22T10:37:31.450Z,14.95
2023-05-22T10:40:05.511Z,13.45
2023-05-22T10:42:34.171Z,13.80
2023-05-22T10:45:02.766Z,14.68
2023-05-22T10:47:31.347Z,14.45
2023-05-22T10:50:10.426Z,13.65
2023-05-22T10:52:39.840Z,14.07
2023-05-22T10:55:09.195Z,13.80
2023-05-22T10:57:39.505Z,15.27
2023-05-22T11:00:12.276Z,13.23
2023-05-22T11:02:42.955Z,13.32
2023-05-22T11:05:38.564Z,13.35
2023-05-22T11:08:31.797Z,13.90
2023-05-22T11:11:14.161Z,14.20
2023-05-22T11:13:43.934Z,13.15
2023-05-22T11:16:13.019Z,13.48
2023-05-22T11:18:45.338Z,14.23
2023-05-22T11:21:16.742Z,12.73
2023-05-22T11:23:44.744Z,14.55
2023-05-22T11:26:20.312Z,13.50
2023-05-22T11:28:53.415Z,13.35
2023-05-22T11:31:24.259Z,13.75
2023-05-22T11:33:52.374Z,15.00
2023-05-22T11:36:23.781Z,15.15
2023-05-22T11:38:57.910Z,14.05
2023-05-22T11:41:26.387Z,13.80
2023-05-22T11:43:54.620Z,15.00
2023-05-22T11:46:23.397Z,13.68
2023-05-22T11:48:51.721Z,13.10
2023-05-22T11:51:24.912Z,13.68
2023-05-22T11:53:53.258Z,13.95
2023-05-22T11:56:27.372Z,13.25
2023-05-22T11:58:55.420Z,13.88
2023-05-22T12:01:24.105Z,13.70
2023-05-22T12:03:56.729Z,14.05
2023-05-22T12:06:26.907Z,13.20
2023-05-22T12:09:01.011Z,12.60
2023-05-22T12:11:30.793Z,12.48
2023-05-22T12:14:02.193Z,11.75
2023-05-22T12:16:35.811Z,12.65
2023-05-22T12:19:10.424Z,11.80
2023-05-22T12:21:46.240Z,12.65
2023-05-22T12:24:14.993Z,11.85
2023-05-22T12:26:50.408Z,11.40
2023-05-22T12:29:18.621Z,11.88
2023-05-22T12:31:47.944Z,13.55
2023-05-22T12:34:18.737Z,11.93
2023-05-22T12:36:48.736Z,12.30
2023-05-22T12:39:20.030Z,12.45
2023-05-22T12:41:48.161Z,11.40
2023-05-22T12:44:20.413Z,11.75
2023-05-22T12:46:48.764Z,11.20
2023-05-22T12:49:16.786Z,12.07
2023-05-22T12:51:45.812Z,12.25
2023-05-22T12:54:15.649Z,11.43
2023-05-22T12:56:44.125Z,11.07
2023-05-22T12:59:12.460Z,10.82
2023-05-22T13:01:40.401Z,10.20
2023-05-22T13:04:08.458Z,9.82
2023-05-22T13:06:37.923Z,11.20
2023-05-22T13:09:09.014Z,9.80
2023-05-22T13:11:39.838Z,9.77
2023-05-22T13:14:10.883Z,10.07
2023-05-22T13:16:39.352Z,10.05
2023-05-22T13:19:07.534Z,10.15
2023-05-22T13:21:35.678Z,12.07
2023-05-22T13:24:04.282Z,10.82
2023-05-22T13:26:36.423Z,9.82
2023-05-22T13:29:06.572Z,9.15
2023-05-22T13:31:37.544Z,9.10
2023-05-22T13:34:06.490Z,9.23
2023-05-22T13:36:34.735Z,9.57
2023-05-22T13:39:02.944Z,10.20
2023-05-22T13:41:32.099Z,8.88
2023-05-22T13:44:00.362Z,7.60
2023-05-22T13:46:32.551Z,7.45
2023-05-22T13:49:03.479Z,6.53
2023-05-22T13:51:32.129Z,6.47
2023-05-22T13:54:03.046Z,6.20
2023-05-22T13:56:31.198Z,6.50
2023-05-22T13:59:03.039Z,7.18
2023-05-22T14:01:32.935Z,6.68
2023-05-22T14:04:04.215Z,7.43
2023-05-22T14:06:32.632Z,8.00
2023-05-22T14:09:02.446Z,7.97
2023-05-22T14:11:30.441Z,8.65
2023-05-22T14:13:58.432Z,8.68
2023-05-22T14:16:26.436Z,8.35
2023-05-22T14:18:55.991Z,7.78
2023-05-22T14:21:24.084Z,7.78
2023-05-22T14:23:51.981Z,8.75
2023-05-22T14:26:19.907Z,9.20
2023-05-22T14:28:48.410Z,8.75
2023-05-22T14:31:19.296Z,8.38
2023-05-22T14:33:47.332Z,8.40
2023-05-22T14:36:17.893Z,7.88
2023-05-22T14:38:46.772Z,8.68
2023-05-22T14:41:17.157Z,7.78
2023-05-22T14:43:45.149Z,7.45
2023-05-22T14:46:17.115Z,7.90
2023-05-22T14:48:45.360Z,7.15
2023-05-22T14:51:13.659Z,6.07
2023-05-22T14:53:42.950Z,6.88
2023-05-22T14:56:10.918Z,7.43
2023-05-22T14:58:39.467Z,7.78
2023-05-22T15:01:07.646Z,7.57
2023-05-22T15:03:36.084Z,7.43
2023-05-22T15:06:04.697Z,8.70
2023-05-22T15:08:32.654Z,9.27
2023-05-22T15:11:02.043Z,10.88
2023-05-22T15:13:30.757Z,11.48
2023-05-22T15:15:59.221Z,11.70
2023-05-22T15:18:27.847Z,11.98
2023-05-22T15:20:58.861Z,12.65
2023-05-22T15:23:31.270Z,13.23
2023-05-22T15:25:59.457Z,12.93
2023-05-22T15:28:29.127Z,12.80
2023-05-22T15:30:57.103Z,13.70
2023-05-22T15:33:25.556Z,14.15
2023-05-22T15:35:58.276Z,13.80
2023-05-22T15:38:26.487Z,12.90
2023-05-22T15:40:54.690Z,14.55
2023-05-22T15:43:26.021Z,14.52
2023-05-22T15:45:55.597Z,15.50
2023-05-22T15:48:23.879Z,13.82
2023-05-22T15:50:51.920Z,12.05
2023-05-22T15:53:22.132Z,12.80
2023-05-22T15:55:52.610Z,12.68
2023-05-22T15:58:23.018Z,12.10
2023-05-22T16:00:53.206Z,12.70
2023-05-22T16:03:28.822Z,13.10
2023-05-22T16:05:57.157Z,11.23
2023-05-22T16:08:25.611Z,10.27
2023-05-22T16:10:55.473Z,9.65
2023-05-22T16:13:24.080Z,9.70
2023-05-22T16:15:52.154Z,9.02
2023-05-22T16:18:21.618Z,9.02
2023-05-22T16:20:51.462Z,9.50
2023-05-22T16:23:19.747Z,7.93
2023-05-22T16:25:49.520Z,8.52
2023-05-22T16:28:22.392Z,8.13
2023-05-22T16:30:50.672Z,7.43
2023-05-22T16:33:20.981Z,7.57
2023-05-22T16:35:50.694Z,7.15
2023-05-22T16:38:19.047Z,7.13
2023-05-22T16:40:47.044Z,7.85
2023-05-22T16:43:14.941Z,6.47
2023-05-22T16:45:47.429Z,6.20
2023-05-22T16:48:16.012Z,5.88
2023-05-22T16:50:44.228Z,5.78
2023-05-22T16:53:13.588Z,6.68
2023-05-22T16:55:42.026Z,6.60
2023-05-22T16:58:11.530Z,6.90
2023-05-22T17:00:41.371Z,6.55
2023-05-22T17:03:11.667Z,6.55
2023-05-22T17:05:40.717Z,7.28
2023-05-22T17:08:09.133Z,7.43
2023-05-22T17:10:42.571Z,7.85
2023-05-22T17:13:12.686Z,7.82
2023-05-22T17:15:40.912Z,8.23
2023-05-22T17:18:09.222Z,7.72
2023-05-22T17:20:37.258Z,7.82
2023-05-22T17:23:07.310Z,8.40
2023-05-22T17:25:38.801Z,8.80
2023-05-22T17:28:08.538Z,8.85
2023-05-22T17:30:36.509Z,7.85
2023-05-22T17:33:07.845Z,8.90
2023-05-22T17:35:36.086Z,8.90
2023-05-22T17:38:04.500Z,8.68
2023-05-22T17:40:43.735Z,8.68
2023-05-22T17:43:15.038Z,9.93
2023-05-22T17:45:44.737Z,8.77
2023-05-22T17:48:14.680Z,8.85
2023-05-22T17:50:44.639Z,7.88
2023-05-22T17:53:13.429Z,8.55
2023-05-22T17:55:41.532Z,8.43
2023-05-22T17:58:09.964Z,9.05
2023-05-22T18:00:39.646Z,8.27
2023-05-22T18:03:08.374Z,8.10
2023-05-22T18:05:36.872Z,8.55
2023-05-22T18:08:05.228Z,8.70
2023-05-22T18:10:33.454Z,8.32
2023-05-22T18:13:01.570Z,8.00
2023-05-22T18:15:29.608Z,9.50
2023-05-22T18:17:58.860Z,8.27
2023-05-22T18:20:27.072Z,9.23
2023-05-22T18:22:55.358Z,8.93
2023-05-22T18:25:23.670Z,9.13
2023-05-22T18:27:51.742Z,8.80
2023-05-22T18:30:19.785Z,10.10
2023-05-22T18:32:47.888Z,10.18
2023-05-22T18:35:17.433Z,9.20
2023-05-22T18:37:45.356Z,9.95
2023-05-22T18:40:14.104Z,9.60
2023-05-22T18:42:43.308Z,9.10
2023-05-22T18:45:12.931Z,9.43
2023-05-22T18:47:41.263Z,8.88
2023-05-22T18:50:10.550Z,9.15
2023-05-22T18:52:40.270Z,9.70
2023-05-22T18:55:08.965Z,9.50
2023-05-22T18:57:36.957Z,9.65
2023-05-22T19:00:07.889Z,9.75
2023-05-22T19:02:36.041Z,9.63
2023-05-22T19:05:04.471Z,9.90
2023-05-22T19:07:36.195Z,9.35
2023-05-22T19:10:08.025Z,9.60
2023-05-22T19:12:36.526Z,9.98
2023-05-22T19:15:04.900Z,10.68
2023-05-22T19:17:33.143Z,10.32
2023-05-22T19:20:03.890Z,10.38
2023-05-22T19:22:31.925Z,11.05
2023-05-22T19:25:00.395Z,9.88
2023-05-22T19:27:30.984Z,11.30
2023-05-22T19:29:58.876Z,11.10
2023-05-22T19:32:27.029Z,11.10
2023-05-22T19:35:00.565Z,11.93
2023-05-22T19:37:28.509Z,11.48
2023-05-22T19:39:56.808Z,11.43
2023-05-22T19:42:30.170Z,12.75
2023-05-22T19:45:04.719Z,14.35
2023-05-22T19:47:32.718Z,14.20
2023-05-22T19:50:05.635Z,13.23
2023-05-22T19:52:33.694Z,15.25
2023-05-22T19:55:01.701Z,14.48
2023-05-22T19:57:30.159Z,15.93
2023-05-22T19:59:59.782Z,15.85
2023-05-22T20:02:28.185Z,15.65
2023-05-22T20:04:56.239Z,16.33
2023-05-22T20:07:24.514Z,17.08
2023-05-22T20:09:56.359Z,19.77
2023-05-22T20:12:24.513Z,17.60
2023-05-22T20:14:54.231Z,19.60
2023-05-22T20:17:23.930Z,19.58
2023-05-22T20:19:52.180Z,20.33
2023-05-22T20:22:20.299Z,19.80
2023-05-22T20:24:48.327Z,17.33
2023-05-22T20:27:16.590Z,20.05
2023-05-22T20:29:44.780Z,20.08
2023-05-22T20:32:13.126Z,19.83
2023-05-22T20:34:44.581Z,20.20
2023-05-22T20:37:15.854Z,19.52
2023-05-22T20:39:44.556Z,20.20
2023-05-22T20:42:13.057Z,20.60
2023-05-22T20:44:41.485Z,21.33
2023-05-22T20:47:11.049Z,20.67
2023-05-22T20:49:40.430Z,22.85
2023-05-22T20:52:10.296Z,21.05
2023-05-22T20:54:38.349Z,20.98
2023-05-22T20:57:06.610Z,21.55
2023-05-22T20:59:37.651Z,21.45
2023-05-22T21:02:06.010Z,20.95
2023-05-22T21:04:34.403Z,22.20
2023-05-22T21:07:03.397Z,21.75
2023-05-22T21:09:32.846Z,22.65
2023-05-22T21:12:00.919Z,24.98
2023-05-22T21:14:30.044Z,24.77
2023-05-22T21:16:58.122Z,25.40
2023-05-22T21:19:26.649Z,26.67
2023-05-22T21:21:55.297Z,27.00
2023-05-22T21:24:23.315Z,27.92
2023-05-22T21:26:52.688Z,29.33
2023-05-22T21:29:24.280Z,27.42
2023-05-22T21:31:52.514Z,31.30
2023-05-22T21:34:21.229Z,29.33
2023-05-22T21:36:51.177Z,30.00
2023-05-22T21:39:19.249Z,31.45
2023-05-22T21:41:49.767Z,28.67
2023-05-22T21:44:20.010Z,30.58
2023-05-22T21:46:48.222Z,31.67
2023-05-22T21:49:16.658Z,32.65
2023-05-22T21:51:44.748Z,35.65
2023-05-22T21:54:12.832Z,32.72
2023-05-22T21:56:40.830Z,32.75
2023-05-22T21:59:09.077Z,33.83
2023-05-22T22:01:38.891Z,36.85
2023-05-22T22:04:07.315Z,35.60
2023-05-22T22:06:36.811Z,35.17
2023-05-22T22:09:07.911Z,35.10
2023-05-22T22:11:36.277Z,37.38
2023-05-22T22:14:05.430Z,38.53
2023-05-22T22:16:36.236Z,38.33
2023-05-22T22:19:05.848Z,40.22
2023-05-22T22:21:34.497Z,37.83
2023-05-22T22:24:02.821Z,40.28
2023-05-22T22:26:31.114Z,37.63
2023-05-22T22:28:59.639Z,41.38
2023-05-22T22:31:31.768Z,40.88
2023-05-22T22:34:05.813Z,41.60
2023-05-22T22:36:36.011Z,42.38
2023-05-22T22:39:04.242Z,41.13
2023-05-22T22:41:32.386Z,42.97
2023-05-22T22:44:00.279Z,41.60
2023-05-22T22:46:28.385Z,40.17
2023-05-22T22:49:01.889Z,42.22
2023-05-22T22:51:32.072Z,43.60
2023-05-22T22:54:01.334Z,41.80
2023-05-22T22:56:29.917Z,43.35
2023-05-22T22:58:59.849Z,43.50
2023-05-22T23:01:30.149Z,44.17
2023-05-22T23:03:58.482Z,42.17
2023-05-22T23:06:29.643Z,42.88
2023-05-22T23:08:58.934Z,44.05
2023-05-22T23:11:35.251Z,44.33
2023-05-22T23:14:03.888Z,44.58
2023-05-22T23:16:36.052Z,44.80
2023-05-22T23:19:05.610Z,43.45
2023-05-22T23:21:34.169Z,45.13
2023-05-22T23:24:05.235Z,44.60
2023-05-22T23:26:36.529Z,45.50
2023-05-22T23:29:04.585Z,43.30
2023-05-22T23:31:33.446Z,43.80
2023-05-22T23:34:01.403Z,42.55
2023-05-22T23:36:30.843Z,43.10
2023-05-22T23:39:00.325Z,44.75
2023-05-22T23:41:28.816Z,43.80
2023-05-22T23:43:58.425Z,44.67
2023-05-22T23:46:26.365Z,42.90
2023-05-22T23:48:54.707Z,44.17
2023-05-22T23:51:23.999Z,43.63
2023-05-22T23:53:55.080Z,43.95
2023-05-22T23:56:23.104Z,44.63
2023-05-22T23:58:51.294Z,42.33
